createdAt,value
2023-01-07T00:00:21.267Z,8.43
2023-01-07T00:05:20.221Z,8.42
2023-01-07T00:10:18.960Z,8.43
2023-01-07T00:15:19.123Z,8.43
2023-01-07T00:20:18.129Z,8.44
2023-01-07T00:25:17.091Z,8.44
2023-01-07T00:30:15.951Z,8.42
2023-01-07T00:35:23.420Z,8.42
2023-01-07T00:40:23.159Z,8.41
2023-01-07T00:45:22.175Z,8.41
2023-01-07T00:50:22.996Z,8.41
2023-01-07T00:55:22.089Z,8.41
2023-01-07T01:00:22.863Z,8.40
2023-01-07T01:05:23.796Z,8.33
2023-01-07T01:10:22.569Z,8.07
2023-01-07T01:15:21.775Z,8.08
2023-01-07T01:20:22.538Z,8.10
2023-01-07T01:25:21.445Z,8.10
2023-01-07T01:30:20.930Z,8.09
2023-01-07T01:35:19.888Z,8.05
2023-01-07T01:40:20.686Z,8.03
2023-01-07T01:45:20.789Z,7.96
2023-01-07T01:50:25.269Z,7.90
2023-01-07T01:55:30.553Z,7.86
2023-01-07T02:00:30.893Z,7.73
2023-01-07T02:05:34.212Z,7.66
2023-01-07T02:10:35.293Z,7.51
2023-01-07T02:15:53.320Z,7.47
2023-01-07T02:21:02.272Z,7.43
2023-01-07T02:26:42.833Z,7.40
2023-01-07T02:32:11.658Z,7.31
2023-01-07T02:37:16.029Z,7.31
2023-01-07T02:42:24.715Z,7.32
2023-01-07T02:47:29.628Z,7.31
2023-01-07T02:52:35.248Z,7.25
2023-01-07T02:57:56.037Z,7.18
2023-01-07T03:03:15.370Z,7.12
2023-01-07T03:08:36.014Z,7.09
2023-01-07T03:13:40.280Z,6.97
2023-01-07T03:18:47.342Z,6.85
2023-01-07T03:23:51.901Z,6.82
2023-01-07T03:28:52.462Z,6.72
2023-01-07T03:33:56.955Z,6.61
2023-01-07T03:38:57.582Z,6.53
2023-01-07T03:43:57.589Z,6.41
2023-01-07T03:48:58.104Z,6.40
2023-01-07T03:53:57.185Z,6.42
2023-01-07T03:58:56.416Z,6.42
2023-01-07T04:03:55.485Z,6.43
2023-01-07T04:08:56.268Z,6.36
2023-01-07T04:13:55.196Z,6.27
2023-01-07T04:18:54.188Z,6.24
2023-01-07T04:23:53.181Z,6.21
2023-01-07T04:28:53.681Z,6.17
2023-01-07T04:33:52.583Z,6.13
2023-01-07T04:38:51.998Z,6.06
2023-01-07T04:43:51.284Z,5.99
2023-01-07T04:48:51.533Z,5.92
2023-01-07T04:53:50.535Z,5.87
2023-01-07T04:58:49.580Z,5.85
2023-01-07T05:03:51.080Z,5.84
2023-01-07T05:08:49.980Z,5.81
2023-01-07T05:13:50.933Z,5.79
2023-01-07T05:18:52.151Z,5.78
2023-01-07T05:23:52.094Z,5.69
2023-01-07T05:28:51.367Z,5.64
2023-01-07T05:33:51.627Z,5.50
2023-01-07T05:38:50.614Z,5.43
2023-01-07T05:43:49.601Z,5.31
2023-01-07T05:48:48.503Z,5.25
2023-01-07T05:53:48.699Z,5.10
2023-01-07T05:58:47.505Z,4.98
2023-01-07T06:03:46.551Z,4.87
2023-01-07T06:08:45.526Z,4.74
2023-01-07T06:13:45.703Z,4.67
2023-01-07T06:18:44.520Z,4.40
2023-01-07T06:23:43.612Z,4.42
2023-01-07T06:28:42.436Z,4.42
2023-01-07T06:33:42.547Z,4.42
2023-01-07T06:38:41.785Z,4.35
2023-01-07T06:43:40.589Z,3.86
2023-01-07T06:48:39.455Z,3.92
2023-01-07T06:53:39.611Z,4.00
2023-01-07T06:58:38.410Z,4.04
2023-01-07T07:03:39.225Z,4.09
2023-01-07T07:08:39.482Z,4.11
2023-01-07T07:13:38.232Z,4.08
2023-01-07T07:18:37.134Z,3.98
2023-01-07T07:23:35.927Z,4.01
2023-01-07T07:28:36.030Z,3.89
2023-01-07T07:33:34.707Z,3.86
2023-01-07T07:38:33.495Z,3.61
2023-01-07T07:43:32.275Z,3.79
2023-01-07T07:48:32.455Z,3.63
2023-01-07T07:53:31.323Z,3.90
2023-01-07T07:58:30.168Z,3.75
2023-01-07T08:03:29.272Z,3.88
2023-01-07T08:08:31.377Z,3.77
2023-01-07T08:13:32.227Z,4.01
2023-01-07T08:18:32.826Z,4.03
2023-01-07T08:23:34.932Z,3.99
2023-01-07T08:28:35.004Z,4.07
2023-01-07T08:33:37.705Z,4.24
2023-01-07T08:38:38.033Z,4.28
2023-01-07T08:43:36.841Z,4.70
2023-01-07T08:48:35.944Z,4.53
2023-01-07T08:53:35.351Z,4.65
2023-01-07T08:58:35.657Z,4.59
2023-01-07T09:03:34.592Z,4.84
2023-01-07T09:08:33.461Z,5.28
2023-01-07T09:13:32.276Z,5.27
2023-01-07T09:18:32.516Z,5.77
2023-01-07T09:23:31.294Z,6.30
2023-01-07T09:28:30.416Z,6.42
2023-01-07T09:33:29.205Z,7.37
2023-01-07T09:38:30.046Z,7.70
2023-01-07T09:43:58.777Z,7.61
2023-01-07T09:48:58.629Z,7.69
2023-01-07T09:54:02.881Z,8.39
2023-01-07T09:59:02.936Z,8.77
2023-01-07T10:04:16.703Z,8.95
2023-01-07T10:09:30.593Z,9.10
2023-01-07T10:14:49.814Z,9.67
2023-01-07T10:19:56.237Z,9.85
2023-01-07T10:25:01.333Z,10.19
2023-01-07T10:30:06.737Z,10.32
2023-01-07T10:35:14.019Z,10.44
2023-01-07T10:40:26.497Z,10.29
2023-01-07T10:45:38.677Z,10.89
2023-01-07T10:51:04.851Z,11.00
2023-01-07T10:56:17.646Z,10.86
2023-01-07T11:01:24.600Z,11.10
2023-01-07T11:06:32.972Z,11.90
2023-01-07T11:11:34.676Z,11.81
2023-01-07T11:16:38.336Z,11.95
2023-01-07T11:21:43.951Z,12.07
2023-01-07T11:26:47.920Z,12.35
2023-01-07T11:31:51.596Z,12.28
2023-01-07T11:36:50.424Z,12.66
2023-01-07T11:42:21.562Z,12.76
2023-01-07T11:47:21.096Z,13.32
2023-01-07T11:52:21.339Z,13.92
2023-01-07T11:57:25.580Z,13.93
2023-01-07T12:02:28.024Z,14.00
2023-01-07T12:07:27.193Z,14.26
2023-01-07T12:12:37.108Z,13.75
2023-01-07T12:17:36.921Z,14.29
2023-01-07T12:22:47.999Z,14.87
2023-01-07T12:27:58.027Z,15.33
2023-01-07T12:33:12.035Z,15.78
2023-01-07T12:38:14.760Z,16.23
2023-01-07T12:43:18.035Z,16.90
2023-01-07T12:48:21.392Z,16.35
2023-01-07T12:53:26.965Z,16.63
2023-01-07T12:58:41.184Z,16.22
2023-01-07T13:03:50.749Z,16.67
2023-01-07T13:08:59.330Z,17.17
2023-01-07T13:13:59.691Z,16.33
2023-01-07T13:18:58.477Z,16.51
2023-01-07T13:24:56.199Z,16.70
2023-01-07T13:30:03.499Z,16.97
2023-01-07T13:35:20.532Z,17.31
2023-01-07T13:40:36.261Z,17.53
2023-01-07T13:45:39.430Z,17.38
2023-01-07T13:50:41.871Z,17.16
2023-01-07T13:55:42.788Z,17.32
2023-01-07T14:01:02.619Z,17.42
2023-01-07T14:06:34.114Z,17.82
2023-01-07T14:11:53.670Z,17.78
2023-01-07T14:17:03.430Z,17.64
2023-01-07T14:22:10.706Z,17.35
2023-01-07T14:27:35.422Z,17.03
2023-01-07T14:32:37.800Z,17.08
2023-01-07T14:37:39.275Z,17.15
2023-01-07T14:42:43.962Z,17.15
2023-01-07T14:47:56.752Z,16.90
2023-01-07T14:53:46.751Z,16.65
2023-01-07T14:59:16.268Z,16.31
2023-01-07T15:04:38.568Z,15.96
2023-01-07T15:10:00.089Z,15.59
2023-01-07T15:15:24.861Z,15.25
2023-01-07T15:20:28.279Z,14.90
2023-01-07T15:25:36.201Z,14.57
2023-01-07T15:30:44.565Z,14.25
2023-01-07T15:35:45.955Z,13.99
2023-01-07T15:40:47.910Z,13.71
2023-01-07T15:45:46.951Z,13.43
2023-01-07T15:50:47.592Z,13.15
2023-01-07T15:55:54.009Z,12.84
2023-01-07T16:00:53.692Z,12.62
2023-01-07T16:05:54.392Z,12.46
2023-01-07T16:11:02.331Z,12.29
2023-01-07T16:16:03.588Z,12.13
2023-01-07T16:21:07.394Z,11.97
2023-01-07T16:26:08.724Z,11.85
2023-01-07T16:31:11.877Z,11.70
2023-01-07T16:36:15.207Z,11.59
2023-01-07T16:41:23.053Z,11.40
2023-01-07T16:46:26.077Z,11.28
2023-01-07T16:51:41.028Z,11.17
2023-01-07T16:56:39.836Z,11.06
2023-01-07T17:01:38.815Z,10.97
2023-01-07T17:06:44.032Z,10.88
2023-01-07T17:11:42.874Z,10.77
2023-01-07T17:16:42.482Z,10.68
2023-01-07T17:21:44.934Z,10.59
2023-01-07T17:26:49.023Z,10.51
2023-01-07T17:31:48.451Z,10.38
2023-01-07T17:36:50.775Z,10.18
2023-01-07T17:42:06.963Z,9.97
2023-01-07T17:47:09.911Z,9.87
2023-01-07T17:52:12.014Z,9.78
2023-01-07T17:57:12.971Z,9.73
2023-01-07T18:02:17.025Z,9.69
2023-01-07T18:07:17.583Z,9.65
2023-01-07T18:12:34.613Z,9.62
2023-01-07T18:17:33.480Z,9.56
2023-01-07T18:22:33.728Z,9.51
2023-01-07T18:27:32.491Z,9.48
2023-01-07T18:32:31.292Z,9.43
2023-01-07T18:37:30.097Z,9.38
2023-01-07T18:42:30.422Z,9.35
2023-01-07T18:47:29.211Z,9.30
2023-01-07T18:52:28.961Z,9.24
2023-01-07T18:57:29.090Z,9.17
2023-01-07T19:02:27.807Z,9.11
2023-01-07T19:07:26.728Z,9.02
2023-01-07T19:12:25.660Z,8.92
2023-01-07T19:17:27.898Z,8.82
2023-01-07T19:22:26.846Z,8.74
2023-01-07T19:27:25.791Z,8.67
2023-01-07T19:32:24.602Z,8.62
2023-01-07T19:37:24.746Z,8.40
2023-01-07T19:42:23.618Z,8.18
2023-01-07T19:47:22.494Z,8.12
2023-01-07T19:52:21.304Z,8.03
2023-01-07T19:57:21.621Z,7.99
2023-01-07T20:02:20.574Z,7.95
2023-01-07T20:07:19.600Z,7.71
2023-01-07T20:12:19.728Z,7.47
2023-01-07T20:17:19.929Z,7.43
2023-01-07T20:22:18.927Z,7.39
2023-01-07T20:27:17.825Z,7.39
2023-01-07T20:32:18.383Z,7.36
2023-01-07T20:37:24.097Z,7.23
2023-01-07T20:42:22.902Z,7.09
2023-01-07T20:47:21.745Z,7.11
2023-01-07T20:52:21.963Z,7.10
2023-01-07T20:57:20.791Z,7.10
2023-01-07T21:02:19.769Z,7.10
2023-01-07T21:07:18.802Z,6.96
2023-01-07T21:12:19.102Z,6.98
2023-01-07T21:17:17.990Z,7.01
2023-01-07T21:22:16.897Z,7.03
2023-01-07T21:27:15.795Z,7.01
2023-01-07T21:32:16.003Z,7.00
2023-01-07T21:37:14.810Z,6.98
2023-01-07T21:42:13.656Z,6.94
2023-01-07T21:47:12.526Z,6.93
2023-01-07T21:52:12.744Z,6.81
2023-01-07T21:57:11.652Z,6.79
2023-01-07T22:02:11.352Z,6.78
2023-01-07T22:07:16.115Z,6.78
2023-01-07T22:12:16.418Z,6.78
2023-01-07T22:17:16.198Z,6.77
2023-01-07T22:22:16.947Z,6.77
2023-01-07T22:27:15.944Z,6.75
2023-01-07T22:32:14.769Z,6.72
2023-01-07T22:37:18.146Z,6.71
2023-01-07T22:42:21.491Z,6.68
2023-01-07T22:47:23.700Z,6.67
2023-01-07T22:52:24.272Z,6.68
2023-01-07T22:57:23.205Z,6.66
2023-01-07T23:02:21.987Z,6.67
2023-01-07T23:07:20.712Z,6.67
2023-01-07T23:12:20.942Z,6.68
2023-01-07T23:17:19.725Z,6.67
2023-01-07T23:22:18.517Z,6.66
2023-01-07T23:27:17.321Z,6.63
2023-01-07T23:32:17.631Z,6.60
2023-01-07T23:37:16.461Z,6.54
2023-01-07T23:42:15.249Z,6.49
2023-01-07T23:47:14.133Z,6.44
2023-01-07T23:52:14.283Z,6.40
2023-01-07T23:57:13.299Z,6.37
